sensor_id;sensor_type;location;lat;lon;timestamp;P1;durP1;ratioP1;P2;durP2;ratioP2
22144;SDS011;11238;48.730;11.566;2023-04-03T00:01:16;2.78;;;2.42;;
22144;SDS011;11238;48.730;11.566;2023-04-03T00:03:43;2.72;;;2.40;;
22144;SDS011;11238;48.730;11.566;2023-04-03T00:06:09;4.68;;;2.60;;
22144;SDS011;11238;48.730;11.566;2023-04-03T00:08:37;3.28;;;2.60;;
22144;SDS011;11238;48.730;11.566;2023-04-03T00:11:04;4.03;;;2.70;;
22144;SDS011;11238;48.730;11.566;2023-04-03T00:13:33;3.13;;;2.83;;
22144;SDS011;11238;48.730;11.566;2023-04-03T00:15:59;5.93;;;2.60;;
22144;SDS011;11238;48.730;11.566;2023-04-03T00:18:25;2.92;;;2.63;;
22144;SDS011;11238;48.730;11.566;2023-04-03T00:20:51;4.80;;;2.92;;
22144;SDS011;11238;48.730;11.566;2023-04-03T00:23:17;3.65;;;2.60;;
22144;SDS011;11238;48.730;11.566;2023-04-03T00:25:44;3.97;;;2.63;;
22144;SDS011;11238;48.730;11.566;2023-04-03T00:28:09;4.43;;;2.70;;
22144;SDS011;11238;48.730;11.566;2023-04-03T00:30:36;5.28;;;2.97;;
22144;SDS011;11238;48.730;11.566;2023-04-03T00:33:01;3.08;;;2.78;;
22144;SDS011;11238;48.730;11.566;2023-04-03T00:35:28;2.88;;;2.60;;
22144;SDS011;11238;48.730;11.566;2023-04-03T00:37:55;2.88;;;2.60;;
22144;SDS011;11238;48.730;11.566;2023-04-03T00:40:23;3.53;;;3.22;;
22144;SDS011;11238;48.730;11.566;2023-04-03T00:42:54;4.05;;;2.97;;
22144;SDS011;11238;48.730;11.566;2023-04-03T00:45:24;4.45;;;2.90;;
22144;SDS011;11238;48.730;11.566;2023-04-03T00:47:57;3.03;;;2.72;;
22144;SDS011;11238;48.730;11.566;2023-04-03T00:50:25;3.30;;;3.00;;
22144;SDS011;11238;48.730;11.566;2023-04-03T00:52:53;4.18;;;2.78;;
22144;SDS011;11238;48.730;11.566;2023-04-03T00:55:19;4.15;;;3.22;;
22144;SDS011;11238;48.730;11.566;2023-04-03T00:57:45;3.30;;;3.00;;
22144;SDS011;11238;48.730;11.566;2023-04-03T01:00:14;4.38;;;3.05;;
22144;SDS011;11238;48.730;11.566;2023-04-03T01:02:44;3.83;;;3.13;;
22144;SDS011;11238;48.730;11.566;2023-04-03T01:05:13;3.75;;;3.10;;
22144;SDS011;11238;48.730;11.566;2023-04-03T01:07:45;3.25;;;2.90;;
22144;SDS011;11238;48.730;11.566;2023-04-03T01:10:13;4.63;;;3.20;;
22144;SDS011;11238;48.730;11.566;2023-04-03T01:12:42;5.93;;;3.10;;
22144;SDS011;11238;48.730;11.566;2023-04-03T01:15:14;3.63;;;3.10;;
22144;SDS011;11238;48.730;11.566;2023-04-03T01:17:44;3.55;;;2.67;;
22144;SDS011;11238;48.730;11.566;2023-04-03T01:25:40;3.80;;;3.20;;
22144;SDS011;11238;48.730;11.566;2023-04-03T01:28:10;4.40;;;3.38;;
22144;SDS011;11238;48.730;11.566;2023-04-03T01:30:43;4.82;;;3.40;;
22144;SDS011;11238;48.730;11.566;2023-04-03T01:33:32;5.18;;;3.17;;
22144;SDS011;11238;48.730;11.566;2023-04-03T01:35:58;4.32;;;3.33;;
22144;SDS011;11238;48.730;11.566;2023-04-03T01:38:24;6.07;;;3.20;;
22144;SDS011;11238;48.730;11.566;2023-04-03T01:40:51;3.67;;;3.08;;
22144;SDS011;11238;48.730;11.566;2023-04-03T01:43:17;5.57;;;3.20;;
22144;SDS011;11238;48.730;11.566;2023-04-03T01:45:43;4.55;;;3.05;;
22144;SDS011;11238;48.730;11.566;2023-04-03T01:48:09;4.88;;;3.15;;
22144;SDS011;11238;48.730;11.566;2023-04-03T01:50:35;3.67;;;3.00;;
22144;SDS011;11238;48.730;11.566;2023-04-03T01:53:01;4.10;;;3.28;;
22144;SDS011;11238;48.730;11.566;2023-04-03T01:55:27;4.50;;;3.03;;
22144;SDS011;11238;48.730;11.566;2023-04-03T01:57:53;3.40;;;3.10;;
22144;SDS011;11238;48.730;11.566;2023-04-03T02:00:18;3.15;;;2.85;;
22144;SDS011;11238;48.730;11.566;2023-04-03T02:02:44;4.00;;;3.00;;
22144;SDS011;11238;48.730;11.566;2023-04-03T02:05:10;4.15;;;2.90;;
22144;SDS011;11238;48.730;11.566;2023-04-03T02:07:36;4.68;;;3.20;;
22144;SDS011;11238;48.730;11.566;2023-04-03T02:10:02;5.63;;;3.28;;
22144;SDS011;11238;48.730;11.566;2023-04-03T02:12:28;5.65;;;3.40;;
22144;SDS011;11238;48.730;11.566;2023-04-03T02:14:54;3.65;;;3.20;;
22144;SDS011;11238;48.730;11.566;2023-04-03T02:17:20;3.25;;;2.90;;
22144;SDS011;11238;48.730;11.566;2023-04-03T02:19:47;4.95;;;3.03;;
22144;SDS011;11238;48.730;11.566;2023-04-03T02:22:13;5.38;;;3.53;;
22144;SDS011;11238;48.730;11.566;2023-04-03T02:24:39;5.38;;;3.03;;
22144;SDS011;11238;48.730;11.566;2023-04-03T02:27:05;5.30;;;3.38;;
22144;SDS011;11238;48.730;11.566;2023-04-03T02:29:31;6.55;;;3.20;;
22144;SDS011;11238;48.730;11.566;2023-04-03T02:31:57;5.45;;;3.50;;
22144;SDS011;11238;48.730;11.566;2023-04-03T02:34:24;4.05;;;3.28;;
22144;SDS011;11238;48.730;11.566;2023-04-03T02:36:51;5.13;;;3.25;;
22144;SDS011;11238;48.730;11.566;2023-04-03T02:39:18;3.63;;;3.30;;
22144;SDS011;11238;48.730;11.566;2023-04-03T02:41:44;4.20;;;3.10;;
22144;SDS011;11238;48.730;11.566;2023-04-03T02:44:31;4.53;;;3.05;;
22144;SDS011;11238;48.730;11.566;2023-04-03T02:47:01;5.25;;;3.28;;
22144;SDS011;11238;48.730;11.566;2023-04-03T02:49:27;4.28;;;3.30;;
22144;SDS011;11238;48.730;11.566;2023-04-03T02:51:54;3.55;;;3.22;;
22144;SDS011;11238;48.730;11.566;2023-04-03T02:54:20;3.50;;;2.85;;
22144;SDS011;11238;48.730;11.566;2023-04-03T02:56:50;5.22;;;3.30;;
22144;SDS011;11238;48.730;11.566;2023-04-03T02:59:16;4.80;;;3.15;;
22144;SDS011;11238;48.730;11.566;2023-04-03T03:01:43;3.95;;;3.20;;
22144;SDS011;11238;48.730;11.566;2023-04-03T03:04:09;3.58;;;3.28;;
22144;SDS011;11238;48.730;11.566;2023-04-03T03:06:35;3.88;;;3.40;;
22144;SDS011;11238;48.730;11.566;2023-04-03T03:09:00;3.85;;;3.30;;
22144;SDS011;11238;48.730;11.566;2023-04-03T03:11:27;5.55;;;3.22;;
22144;SDS011;11238;48.730;11.566;2023-04-03T03:13:52;4.45;;;3.60;;
22144;SDS011;11238;48.730;11.566;2023-04-03T03:16:18;4.38;;;3.00;;
22144;SDS011;11238;48.730;11.566;2023-04-03T03:18:44;3.63;;;2.88;;
22144;SDS011;11238;48.730;11.566;2023-04-03T03:21:10;3.75;;;3.40;;
22144;SDS011;11238;48.730;11.566;2023-04-03T03:23:37;4.28;;;3.40;;
22144;SDS011;11238;48.730;11.566;2023-04-03T03:26:06;4.55;;;3.53;;
22144;SDS011;11238;48.730;11.566;2023-04-03T03:28:35;3.90;;;3.50;;
22144;SDS011;11238;48.730;11.566;2023-04-03T03:31:02;3.85;;;3.45;;
22144;SDS011;11238;48.730;11.566;2023-04-03T03:33:31;5.03;;;3.45;;
22144;SDS011;11238;48.730;11.566;2023-04-03T03:35:58;4.78;;;3.20;;
22144;SDS011;11238;48.730;11.566;2023-04-03T03:38:24;5.72;;;3.40;;
22144;SDS011;11238;48.730;11.566;2023-04-03T03:40:51;6.10;;;3.38;;
22144;SDS011;11238;48.730;11.566;2023-04-03T03:43:19;5.78;;;3.58;;
22144;SDS011;11238;48.730;11.566;2023-04-03T03:45:54;4.90;;;3.13;;
22144;SDS011;11238;48.730;11.566;2023-04-03T03:48:22;5.32;;;3.67;;
22144;SDS011;11238;48.730;11.566;2023-04-03T03:50:48;4.38;;;3.30;;
22144;SDS011;11238;48.730;11.566;2023-04-03T03:53:16;6.28;;;3.40;;
22144;SDS011;11238;48.730;11.566;2023-04-03T03:55:43;4.13;;;3.40;;
22144;SDS011;11238;48.730;11.566;2023-04-03T03:58:09;4.10;;;3.60;;
22144;SDS011;11238;48.730;11.566;2023-04-03T04:00:36;5.07;;;3.65;;
22144;SDS011;11238;48.730;11.566;2023-04-03T04:03:02;5.38;;;3.42;;
22144;SDS011;11238;48.730;11.566;2023-04-03T04:05:30;4.55;;;3.50;;
22144;SDS011;11238;48.730;11.566;2023-04-03T04:07:57;4.13;;;3.72;;
22144;SDS011;11238;48.730;11.566;2023-04-03T04:10:24;5.15;;;3.78;;
22144;SDS011;11238;48.730;11.566;2023-04-03T04:12:50;5.32;;;3.33;;
22144;SDS011;11238;48.730;11.566;2023-04-03T04:15:19;7.75;;;4.40;;
22144;SDS011;11238;48.730;11.566;2023-04-03T04:17:48;4.90;;;3.75;;
22144;SDS011;11238;48.730;11.566;2023-04-03T04:20:14;5.93;;;3.90;;
22144;SDS011;11238;48.730;11.566;2023-04-03T04:22:40;8.00;;;4.35;;
22144;SDS011;11238;48.730;11.566;2023-04-03T04:25:07;4.82;;;3.38;;
22144;SDS011;11238;48.730;11.566;2023-04-03T04:27:35;6.85;;;3.78;;
22144;SDS011;11238;48.730;11.566;2023-04-03T04:30:02;4.28;;;3.80;;
22144;SDS011;11238;48.730;11.566;2023-04-03T04:32:30;5.97;;;3.70;;
22144;SDS011;11238;48.730;11.566;2023-04-03T04:34:57;6.75;;;3.92;;
22144;SDS011;11238;48.730;11.566;2023-04-03T04:37:23;4.28;;;3.65;;
22144;SDS011;11238;48.730;11.566;2023-04-03T04:39:49;6.22;;;4.10;;
22144;SDS011;11238;48.730;11.566;2023-04-03T04:42:15;5.65;;;3.80;;
22144;SDS011;11238;48.730;11.566;2023-04-03T04:44:44;5.60;;;3.60;;
22144;SDS011;11238;48.730;11.566;2023-04-03T04:47:12;4.72;;;3.60;;
22144;SDS011;11238;48.730;11.566;2023-04-03T04:49:38;4.95;;;3.35;;
22144;SDS011;11238;48.730;11.566;2023-04-03T04:52:04;4.15;;;3.38;;
22144;SDS011;11238;48.730;11.566;2023-04-03T04:54:31;3.85;;;3.35;;
22144;SDS011;11238;48.730;11.566;2023-04-03T04:56:57;4.70;;;4.10;;
22144;SDS011;11238;48.730;11.566;2023-04-03T04:59:23;5.82;;;3.58;;
22144;SDS011;11238;48.730;11.566;2023-04-03T05:01:51;5.70;;;3.63;;
22144;SDS011;11238;48.730;11.566;2023-04-03T05:04:17;5.00;;;3.78;;
22144;SDS011;11238;48.730;11.566;2023-04-03T05:06:45;5.28;;;3.55;;
22144;SDS011;11238;48.730;11.566;2023-04-03T05:09:16;4.72;;;3.25;;
22144;SDS011;11238;48.730;11.566;2023-04-03T05:11:44;6.38;;;3.50;;
22144;SDS011;11238;48.730;11.566;2023-04-03T05:14:11;5.35;;;3.70;;
22144;SDS011;11238;48.730;11.566;2023-04-03T05:16:38;6.68;;;3.58;;
22144;SDS011;11238;48.730;11.566;2023-04-03T05:19:05;6.47;;;3.90;;
22144;SDS011;11238;48.730;11.566;2023-04-03T05:21:31;9.38;;;3.83;;
22144;SDS011;11238;48.730;11.566;2023-04-03T05:23:59;4.32;;;3.33;;
22144;SDS011;11238;48.730;11.566;2023-04-03T05:26:31;4.50;;;3.40;;
22144;SDS011;11238;48.730;11.566;2023-04-03T05:28:58;6.07;;;3.58;;
22144;SDS011;11238;48.730;11.566;2023-04-03T05:31:24;6.05;;;3.45;;
22144;SDS011;11238;48.730;11.566;2023-04-03T05:33:50;7.30;;;3.55;;
22144;SDS011;11238;48.730;11.566;2023-04-03T05:36:17;6.18;;;3.67;;
22144;SDS011;11238;48.730;11.566;2023-04-03T05:38:47;6.00;;;3.30;;
22144;SDS011;11238;48.730;11.566;2023-04-03T05:41:15;4.82;;;3.50;;
22144;SDS011;11238;48.730;11.566;2023-04-03T05:43:43;5.25;;;3.58;;
22144;SDS011;11238;48.730;11.566;2023-04-03T05:46:10;4.28;;;3.30;;
22144;SDS011;11238;48.730;11.566;2023-04-03T05:48:59;5.95;;;3.20;;
22144;SDS011;11238;48.730;11.566;2023-04-03T05:51:30;4.05;;;3.55;;
22144;SDS011;11238;48.730;11.566;2023-04-03T05:54:47;4.93;;;3.05;;
22144;SDS011;11238;48.730;11.566;2023-04-03T05:57:12;5.03;;;3.10;;
22144;SDS011;11238;48.730;11.566;2023-04-03T05:59:40;4.85;;;3.30;;
22144;SDS011;11238;48.730;11.566;2023-04-03T06:02:06;4.68;;;3.10;;
22144;SDS011;11238;48.730;11.566;2023-04-03T06:04:35;5.38;;;3.53;;
22144;SDS011;11238;48.730;11.566;2023-04-03T06:07:01;4.22;;;3.38;;
22144;SDS011;11238;48.730;11.566;2023-04-03T06:09:27;8.23;;;3.65;;
22144;SDS011;11238;48.730;11.566;2023-04-03T06:11:54;5.50;;;3.40;;
22144;SDS011;11238;48.730;11.566;2023-04-03T06:14:22;5.35;;;3.38;;
22144;SDS011;11238;48.730;11.566;2023-04-03T06:16:48;6.25;;;3.60;;
22144;SDS011;11238;48.730;11.566;2023-04-03T06:19:14;5.20;;;3.72;;
22144;SDS011;11238;48.730;11.566;2023-04-03T06:21:45;6.63;;;3.63;;
22144;SDS011;11238;48.730;11.566;2023-04-03T06:24:14;10.23;;;7.28;;
22144;SDS011;11238;48.730;11.566;2023-04-03T06:26:41;8.32;;;4.32;;
22144;SDS011;11238;48.730;11.566;2023-04-03T06:29:07;10.70;;;7.57;;
22144;SDS011;11238;48.730;11.566;2023-04-03T06:31:34;6.78;;;5.28;;
22144;SDS011;11238;48.730;11.566;2023-04-03T06:34:02;7.45;;;5.15;;
22144;SDS011;11238;48.730;11.566;2023-04-03T06:36:28;7.65;;;4.30;;
22144;SDS011;11238;48.730;11.566;2023-04-03T06:38:55;6.15;;;3.97;;
22144;SDS011;11238;48.730;11.566;2023-04-03T06:41:21;5.93;;;3.72;;
22144;SDS011;11238;48.730;11.566;2023-04-03T06:43:47;4.45;;;3.55;;
22144;SDS011;11238;48.730;11.566;2023-04-03T06:46:20;8.13;;;4.20;;
22144;SDS011;11238;48.730;11.566;2023-04-03T06:48:48;8.35;;;4.90;;
22144;SDS011;11238;48.730;11.566;2023-04-03T06:51:17;4.85;;;4.25;;
22144;SDS011;11238;48.730;11.566;2023-04-03T06:53:49;5.35;;;3.90;;
22144;SDS011;11238;48.730;11.566;2023-04-03T06:56:16;6.00;;;4.00;;
22144;SDS011;11238;48.730;11.566;2023-04-03T06:58:43;5.75;;;3.88;;
22144;SDS011;11238;48.730;11.566;2023-04-03T07:01:10;5.60;;;3.95;;
22144;SDS011;11238;48.730;11.566;2023-04-03T07:03:37;6.45;;;3.80;;
22144;SDS011;11238;48.730;11.566;2023-04-03T07:06:04;7.03;;;3.67;;
22144;SDS011;11238;48.730;11.566;2023-04-03T07:08:32;6.53;;;3.88;;
22144;SDS011;11238;48.730;11.566;2023-04-03T07:10:59;8.43;;;3.80;;
22144;SDS011;11238;48.730;11.566;2023-04-03T07:13:26;6.28;;;3.85;;
22144;SDS011;11238;48.730;11.566;2023-04-03T07:15:52;6.10;;;3.75;;
22144;SDS011;11238;48.730;11.566;2023-04-03T07:18:18;7.45;;;3.88;;
22144;SDS011;11238;48.730;11.566;2023-04-03T07:20:44;6.68;;;4.88;;
22144;SDS011;11238;48.730;11.566;2023-04-03T07:23:10;7.15;;;4.50;;
22144;SDS011;11238;48.730;11.566;2023-04-03T07:25:36;7.18;;;4.88;;
22144;SDS011;11238;48.730;11.566;2023-04-03T07:28:07;9.32;;;4.65;;
22144;SDS011;11238;48.730;11.566;2023-04-03T07:30:34;7.60;;;4.57;;
22144;SDS011;11238;48.730;11.566;2023-04-03T07:33:00;12.88;;;4.30;;
22144;SDS011;11238;48.730;11.566;2023-04-03T07:35:26;8.63;;;4.07;;
22144;SDS011;11238;48.730;11.566;2023-04-03T07:37:52;7.97;;;4.38;;
22144;SDS011;11238;48.730;11.566;2023-04-03T07:40:18;5.13;;;3.90;;
22144;SDS011;11238;48.730;11.566;2023-04-03T07:42:44;6.15;;;4.47;;
22144;SDS011;11238;48.730;11.566;2023-04-03T07:45:10;6.88;;;4.40;;
22144;SDS011;11238;48.730;11.566;2023-04-03T07:47:35;5.78;;;4.10;;
22144;SDS011;11238;48.730;11.566;2023-04-03T07:50:01;7.32;;;4.20;;
22144;SDS011;11238;48.730;11.566;2023-04-03T07:52:27;5.13;;;3.80;;
22144;SDS011;11238;48.730;11.566;2023-04-03T07:54:53;7.13;;;4.20;;
22144;SDS011;11238;48.730;11.566;2023-04-03T07:57:19;8.43;;;4.63;;
22144;SDS011;11238;48.730;11.566;2023-04-03T07:59:45;8.65;;;4.22;;
22144;SDS011;11238;48.730;11.566;2023-04-03T08:02:12;6.60;;;3.80;;
22144;SDS011;11238;48.730;11.566;2023-04-03T08:04:37;7.30;;;4.00;;
22144;SDS011;11238;48.730;11.566;2023-04-03T08:07:04;6.40;;;4.03;;
22144;SDS011;11238;48.730;11.566;2023-04-03T08:09:29;7.57;;;4.30;;
22144;SDS011;11238;48.730;11.566;2023-04-03T08:11:57;9.90;;;4.75;;
22144;SDS011;11238;48.730;11.566;2023-04-03T08:14:24;8.07;;;4.13;;
22144;SDS011;11238;48.730;11.566;2023-04-03T08:16:49;6.15;;;4.13;;
22144;SDS011;11238;48.730;11.566;2023-04-03T08:19:16;7.88;;;4.28;;
22144;SDS011;11238;48.730;11.566;2023-04-03T08:21:43;7.75;;;4.10;;
22144;SDS011;11238;48.730;11.566;2023-04-03T08:24:11;6.55;;;4.10;;
22144;SDS011;11238;48.730;11.566;2023-04-03T08:26:37;7.80;;;4.38;;
22144;SDS011;11238;48.730;11.566;2023-04-03T08:29:04;8.13;;;4.07;;
22144;SDS011;11238;48.730;11.566;2023-04-03T08:31:30;6.22;;;4.50;;
22144;SDS011;11238;48.730;11.566;2023-04-03T08:33:56;7.97;;;4.47;;
22144;SDS011;11238;48.730;11.566;2023-04-03T08:36:27;8.15;;;4.50;;
22144;SDS011;11238;48.730;11.566;2023-04-03T08:38:54;6.75;;;3.88;;
22144;SDS011;11238;48.730;11.566;2023-04-03T08:41:29;10.82;;;5.07;;
22144;SDS011;11238;48.730;11.566;2023-04-03T08:46:42;6.55;;;4.28;;
22144;SDS011;11238;48.730;11.566;2023-04-03T08:49:34;7.85;;;4.18;;
22144;SDS011;11238;48.730;11.566;2023-04-03T08:52:08;5.88;;;4.03;;
22144;SDS011;11238;48.730;11.566;2023-04-03T08:54:42;6.00;;;4.10;;
22144;SDS011;11238;48.730;11.566;2023-04-03T08:57:20;6.65;;;3.65;;
22144;SDS011;11238;48.730;11.566;2023-04-03T09:00:20;8.30;;;4.88;;
22144;SDS011;11238;48.730;11.566;2023-04-03T09:02:51;4.78;;;3.22;;
22144;SDS011;11238;48.730;11.566;2023-04-03T09:08:22;7.32;;;3.58;;
22144;SDS011;11238;48.730;11.566;2023-04-03T09:10:57;4.82;;;3.30;;
22144;SDS011;11238;48.730;11.566;2023-04-03T09:13:49;4.85;;;3.38;;
22144;SDS011;11238;48.730;11.566;2023-04-03T09:19:15;5.50;;;3.22;;
22144;SDS011;11238;48.730;11.566;2023-04-03T09:21:52;4.65;;;3.20;;
22144;SDS011;11238;48.730;11.566;2023-04-03T09:24:21;5.68;;;2.85;;
22144;SDS011;11238;48.730;11.566;2023-04-03T09:26:52;7.93;;;3.28;;
22144;SDS011;11238;48.730;11.566;2023-04-03T09:29:25;5.00;;;3.08;;
22144;SDS011;11238;48.730;11.566;2023-04-03T09:31:59;6.65;;;3.28;;
22144;SDS011;11238;48.730;11.566;2023-04-03T09:34:31;4.00;;;2.85;;
22144;SDS011;11238;48.730;11.566;2023-04-03T09:37:00;5.95;;;3.42;;
22144;SDS011;11238;48.730;11.566;2023-04-03T09:39:32;6.70;;;3.08;;
22144;SDS011;11238;48.730;11.566;2023-04-03T09:42:19;5.57;;;2.80;;
22144;SDS011;11238;48.730;11.566;2023-04-03T09:44:54;5.50;;;2.63;;
22144;SDS011;11238;48.730;11.566;2023-04-03T09:47:27;7.07;;;2.90;;
22144;SDS011;11238;48.730;11.566;2023-04-03T09:50:10;4.07;;;2.50;;
22144;SDS011;11238;48.730;11.566;2023-04-03T09:52:46;3.85;;;2.45;;
22144;SDS011;11238;48.730;11.566;2023-04-03T09:55:14;4.47;;;2.75;;
22144;SDS011;11238;48.730;11.566;2023-04-03T09:58:01;4.38;;;2.20;;
22144;SDS011;11238;48.730;11.566;2023-04-03T10:03:03;3.90;;;2.40;;
22144;SDS011;11238;48.730;11.566;2023-04-03T10:05:40;3.78;;;2.50;;
22144;SDS011;11238;48.730;11.566;2023-04-03T10:10:39;4.13;;;2.08;;
22144;SDS011;11238;48.730;11.566;2023-04-03T10:13:13;5.88;;;2.50;;
22144;SDS011;11238;48.730;11.566;2023-04-03T10:18:49;5.80;;;2.60;;
22144;SDS011;11238;48.730;11.566;2023-04-03T10:24:25;3.55;;;2.40;;
22144;SDS011;11238;48.730;11.566;2023-04-03T10:27:11;7.38;;;2.30;;
22144;SDS011;11238;48.730;11.566;2023-04-03T10:32:55;3.22;;;2.08;;
22144;SDS011;11238;48.730;11.566;2023-04-03T10:47:20;3.03;;;1.67;;
22144;SDS011;11238;48.730;11.566;2023-04-03T10:57:39;3.45;;;1.70;;
22144;SDS011;11238;48.730;11.566;2023-04-03T11:00:07;4.13;;;1.88;;
22144;SDS011;11238;48.730;11.566;2023-04-03T11:03:06;3.78;;;1.73;;
22144;SDS011;11238;48.730;11.566;2023-04-03T11:05:40;3.35;;;1.60;;
22144;SDS011;11238;48.730;11.566;2023-04-03T11:10:46;3.97;;;1.92;;
22144;SDS011;11238;48.730;11.566;2023-04-03T11:13:17;4.32;;;2.30;;
22144;SDS011;11238;48.730;11.566;2023-04-03T11:15:49;2.80;;;1.88;;
22144;SDS011;11238;48.730;11.566;2023-04-03T11:18:39;2.33;;;2.10;;
22144;SDS011;11238;48.730;11.566;2023-04-03T11:21:14;5.18;;;1.88;;
22144;SDS011;11238;48.730;11.566;2023-04-03T11:24:02;2.83;;;1.70;;
22144;SDS011;11238;48.730;11.566;2023-04-03T11:26:35;5.85;;;1.88;;
22144;SDS011;11238;48.730;11.566;2023-04-03T11:29:09;2.85;;;1.70;;
22144;SDS011;11238;48.730;11.566;2023-04-03T11:34:50;4.30;;;1.88;;
22144;SDS011;11238;48.730;11.566;2023-04-03T11:37:38;2.35;;;1.90;;
22144;SDS011;11238;48.730;11.566;2023-04-03T11:43:04;3.45;;;2.28;;
22144;SDS011;11238;48.730;11.566;2023-04-03T11:45:49;6.03;;;2.13;;
22144;SDS011;11238;48.730;11.566;2023-04-03T11:51:00;3.22;;;2.20;;
22144;SDS011;11238;48.730;11.566;2023-04-03T11:53:39;5.47;;;2.08;;
22144;SDS011;11238;48.730;11.566;2023-04-03T12:01:43;4.78;;;2.70;;
22144;SDS011;11238;48.730;11.566;2023-04-03T12:04:11;2.55;;;1.50;;
22144;SDS011;11238;48.730;11.566;2023-04-03T12:11:49;6.30;;;2.67;;
22144;SDS011;11238;48.730;11.566;2023-04-03T12:14:15;2.63;;;1.55;;
22144;SDS011;11238;48.730;11.566;2023-04-03T12:16:43;3.03;;;1.88;;
22144;SDS011;11238;48.730;11.566;2023-04-03T12:24:23;3.95;;;1.42;;
22144;SDS011;11238;48.730;11.566;2023-04-03T12:35:02;2.88;;;1.80;;
22144;SDS011;11238;48.730;11.566;2023-04-03T12:37:48;3.17;;;1.80;;
22144;SDS011;11238;48.730;11.566;2023-04-03T12:45:47;5.25;;;1.40;;
22144;SDS011;11238;48.730;11.566;2023-04-03T12:48:54;3.05;;;1.50;;
22144;SDS011;11238;48.730;11.566;2023-04-03T12:51:42;2.08;;;1.38;;
22144;SDS011;11238;48.730;11.566;2023-04-03T12:54:19;1.98;;;1.48;;
22144;SDS011;11238;48.730;11.566;2023-04-03T12:59:53;2.72;;;1.30;;
22144;SDS011;11238;48.730;11.566;2023-04-03T13:02:29;1.38;;;1.23;;
22144;SDS011;11238;48.730;11.566;2023-04-03T13:04:59;3.58;;;1.70;;
22144;SDS011;11238;48.730;11.566;2023-04-03T13:07:33;3.50;;;1.65;;
22144;SDS011;11238;48.730;11.566;2023-04-03T13:10:13;1.80;;;1.50;;
22144;SDS011;11238;48.730;11.566;2023-04-03T13:12:54;3.72;;;1.48;;
22144;SDS011;11238;48.730;11.566;2023-04-03T13:15:29;2.42;;;1.42;;
22144;SDS011;11238;48.730;11.566;2023-04-03T13:18:04;3.10;;;1.80;;
22144;SDS011;11238;48.730;11.566;2023-04-03T13:20:34;3.55;;;1.55;;
22144;SDS011;11238;48.730;11.566;2023-04-03T13:23:02;3.60;;;1.45;;
22144;SDS011;11238;48.730;11.566;2023-04-03T13:25:39;2.78;;;2.00;;
22144;SDS011;11238;48.730;11.566;2023-04-03T13:28:09;4.05;;;1.63;;
22144;SDS011;11238;48.730;11.566;2023-04-03T13:30:38;3.67;;;2.05;;
22144;SDS011;11238;48.730;11.566;2023-04-03T13:33:18;3.38;;;2.15;;
22144;SDS011;11238;48.730;11.566;2023-04-03T13:35:48;2.28;;;1.50;;
22144;SDS011;11238;48.730;11.566;2023-04-03T13:38:24;2.47;;;1.80;;
22144;SDS011;11238;48.730;11.566;2023-04-03T13:40:53;4.95;;;2.20;;
22144;SDS011;11238;48.730;11.566;2023-04-03T13:43:25;3.47;;;2.10;;
22144;SDS011;11238;48.730;11.566;2023-04-03T13:48:36;4.00;;;2.10;;
22144;SDS011;11238;48.730;11.566;2023-04-03T13:53:48;3.97;;;2.20;;
22144;SDS011;11238;48.730;11.566;2023-04-03T13:56:18;3.22;;;2.28;;
22144;SDS011;11238;48.730;11.566;2023-04-03T14:04:44;3.78;;;2.42;;
22144;SDS011;11238;48.730;11.566;2023-04-03T14:07:11;2.33;;;1.90;;
22144;SDS011;11238;48.730;11.566;2023-04-03T14:09:37;3.58;;;1.95;;
22144;SDS011;11238;48.730;11.566;2023-04-03T14:12:25;1.90;;;1.63;;
22144;SDS011;11238;48.730;11.566;2023-04-03T14:14:54;4.38;;;2.28;;
22144;SDS011;11238;48.730;11.566;2023-04-03T14:17:22;4.80;;;1.95;;
22144;SDS011;11238;48.730;11.566;2023-04-03T14:19:50;3.15;;;1.60;;
22144;SDS011;11238;48.730;11.566;2023-04-03T14:22:21;2.97;;;2.00;;
22144;SDS011;11238;48.730;11.566;2023-04-03T14:24:50;3.63;;;1.80;;
22144;SDS011;11238;48.730;11.566;2023-04-03T14:29:46;2.28;;;1.70;;
22144;SDS011;11238;48.730;11.566;2023-04-03T14:32:13;4.30;;;2.08;;
22144;SDS011;11238;48.730;11.566;2023-04-03T14:34:41;4.55;;;1.95;;
22144;SDS011;11238;48.730;11.566;2023-04-03T14:37:18;4.15;;;2.22;;
22144;SDS011;11238;48.730;11.566;2023-04-03T14:39:48;2.75;;;1.92;;
22144;SDS011;11238;48.730;11.566;2023-04-03T14:42:18;2.85;;;1.95;;
22144;SDS011;11238;48.730;11.566;2023-04-03T14:44:46;2.55;;;1.55;;
22144;SDS011;11238;48.730;11.566;2023-04-03T14:47:12;1.98;;;1.50;;
22144;SDS011;11238;48.730;11.566;2023-04-03T14:49:41;2.80;;;1.70;;
22144;SDS011;11238;48.730;11.566;2023-04-03T14:52:27;3.55;;;1.52;;
22144;SDS011;11238;48.730;11.566;2023-04-03T14:54:56;3.78;;;1.77;;
22144;SDS011;11238;48.730;11.566;2023-04-03T14:57:27;4.50;;;1.70;;
22144;SDS011;11238;48.730;11.566;2023-04-03T15:00:20;3.17;;;2.33;;
22144;SDS011;11238;48.730;11.566;2023-04-03T15:02:50;3.75;;;2.65;;
22144;SDS011;11238;48.730;11.566;2023-04-03T15:05:17;3.95;;;2.25;;
22144;SDS011;11238;48.730;11.566;2023-04-03T15:07:50;3.15;;;2.30;;
22144;SDS011;11238;48.730;11.566;2023-04-03T15:10:20;4.18;;;2.25;;
22144;SDS011;11238;48.730;11.566;2023-04-03T15:12:48;4.43;;;2.20;;
22144;SDS011;11238;48.730;11.566;2023-04-03T15:15:16;3.20;;;1.80;;
22144;SDS011;11238;48.730;11.566;2023-04-03T15:17:43;2.95;;;2.10;;
22144;SDS011;11238;48.730;11.566;2023-04-03T15:20:14;3.47;;;2.63;;
22144;SDS011;11238;48.730;11.566;2023-04-03T15:22:42;2.15;;;1.77;;
22144;SDS011;11238;48.730;11.566;2023-04-03T15:25:10;4.38;;;1.98;;
22144;SDS011;11238;48.730;11.566;2023-04-03T15:27:37;2.30;;;1.55;;
22144;SDS011;11238;48.730;11.566;2023-04-03T15:30:04;2.75;;;1.85;;
22144;SDS011;11238;48.730;11.566;2023-04-03T15:32:31;4.47;;;2.17;;
22144;SDS011;11238;48.730;11.566;2023-04-03T15:34:59;2.05;;;1.73;;
22144;SDS011;11238;48.730;11.566;2023-04-03T15:37:25;5.60;;;2.00;;
22144;SDS011;11238;48.730;11.566;2023-04-03T15:39:51;2.17;;;1.60;;
22144;SDS011;11238;48.730;11.566;2023-04-03T15:42:19;2.92;;;1.63;;
22144;SDS011;11238;48.730;11.566;2023-04-03T15:44:45;2.22;;;1.70;;
22144;SDS011;11238;48.730;11.566;2023-04-03T15:47:32;2.00;;;1.65;;
22144;SDS011;11238;48.730;11.566;2023-04-03T15:49:58;4.57;;;2.10;;
22144;SDS011;11238;48.730;11.566;2023-04-03T15:52:25;2.55;;;1.80;;
22144;SDS011;11238;48.730;11.566;2023-04-03T15:54:51;4.72;;;1.60;;
22144;SDS011;11238;48.730;11.566;2023-04-03T15:57:38;3.78;;;2.28;;
22144;SDS011;11238;48.730;11.566;2023-04-03T16:00:04;2.50;;;1.80;;
22144;SDS011;11238;48.730;11.566;2023-04-03T16:02:32;2.75;;;2.00;;
22144;SDS011;11238;48.730;11.566;2023-04-03T16:04:58;4.38;;;2.20;;
22144;SDS011;11238;48.730;11.566;2023-04-03T16:07:44;3.33;;;2.30;;
22144;SDS011;11238;48.730;11.566;2023-04-03T16:10:11;2.92;;;1.80;;
22144;SDS011;11238;48.730;11.566;2023-04-03T16:12:38;3.30;;;1.70;;
22144;SDS011;11238;48.730;11.566;2023-04-03T16:15:04;5.05;;;2.10;;
22144;SDS011;11238;48.730;11.566;2023-04-03T16:17:31;2.53;;;1.92;;
22144;SDS011;11238;48.730;11.566;2023-04-03T16:19:58;2.15;;;1.67;;
22144;SDS011;11238;48.730;11.566;2023-04-03T16:22:25;4.22;;;1.70;;
22144;SDS011;11238;48.730;11.566;2023-04-03T16:24:53;2.83;;;1.80;;
22144;SDS011;11238;48.730;11.566;2023-04-03T16:27:19;3.75;;;1.80;;
22144;SDS011;11238;48.730;11.566;2023-04-03T16:30:04;4.03;;;2.08;;
22144;SDS011;11238;48.730;11.566;2023-04-03T16:32:32;3.88;;;2.00;;
22144;SDS011;11238;48.730;11.566;2023-04-03T16:34:59;3.40;;;2.25;;